»·PEaware :: N519LR KGCN-KHII

N519LR :: KGCN-KHII

FLIGHT INFORMATION

Flight Status: Arrived
Operator: Privately registered:
United States
More flights under this callsign
Pilot: Luiz R. (29874)
Aircraft: BEECH AIRCRAFT BARON
(BE58)
More flights by this aircraft type
Origin: KGCN Grand Canyon Natl Park
United States
Destination: KHII Lake Havasu City
United States
More flights between these airports :: More routes between these airports
Route: GUCRU V208 PATOK
File this flight plan on PilotEdge
Remarks:
Altitude:
(Current/Filed)
8,500ft
Speed:
(Current/Filed)
160kts
Departed: 10-Jul-21 09:16 PM
Arrived: 10-Jul-21 10:15 PM
Distance/Time
Traveled:
137nm/0:59
Distance/Time
To Go:
Arrived

Flight Plot

Page will automatically refresh every two minutes.

Flight plan parsing failed; only flown route is shown


Map Options




Map Legend


Flown Route
Filed Route
Departure Airport
Arrival Airport
Navaid (VOR, NDB)
Fix

Horizontal Profiles

Position Reports

Time Latitude Longitude Heading Altitude Ground
Speed
10-Jul-21 21:02 35.962228 -112.134729 220 6626ft 0kts
10-Jul-21 21:03 35.962228 -112.134729 220 6626ft 0kts
10-Jul-21 21:04 35.962228 -112.134730 220 6626ft 0kts
10-Jul-21 21:05 35.962228 -112.134730 220 6626ft 0kts
10-Jul-21 21:06 35.962228 -112.134730 220 6626ft 0kts
10-Jul-21 21:07 35.962228 -112.134730 220 6626ft 0kts
10-Jul-21 21:08 35.962228 -112.134730 220 6626ft 0kts
10-Jul-21 21:09 35.962228 -112.134730 220 6626ft 0kts
10-Jul-21 21:10 35.962024 -112.135009 221 6624ft 4kts
10-Jul-21 21:11 35.961359 -112.135882 279 6624ft 0kts
10-Jul-21 21:12 35.961359 -112.135882 279 6624ft 0kts
10-Jul-21 21:13 35.961359 -112.135882 279 6624ft 0kts
10-Jul-21 21:14 35.961359 -112.135882 279 6624ft 0kts
10-Jul-21 21:15 35.961108 -112.137647 227 6621ft 32kts
10-Jul-21 21:16 35.941942 -112.159466 232 7172ft 106kts
10-Jul-21 21:16 35.938782 -112.187696 280 7940ft 110kts
10-Jul-21 21:18 35.949905 -112.229597 291 9004ft 113kts
10-Jul-21 21:19 35.945948 -112.266972 269 9829ft 113kts
10-Jul-21 21:20 35.937335 -112.304108 252 10472ft 119kts
10-Jul-21 21:21 35.929895 -112.346909 259 10403ft 135kts
10-Jul-21 21:21 35.924232 -112.385009 262 10474ft 133kts
10-Jul-21 21:22 35.919019 -112.431257 257 10479ft 137kts
10-Jul-21 21:23 35.908738 -112.476804 256 10532ft 137kts
10-Jul-21 21:25 35.900706 -112.531412 266 10533ft 138kts
10-Jul-21 21:25 35.896203 -112.572635 262 10526ft 161kts
10-Jul-21 21:26 35.887671 -112.629300 261 10436ft 172kts
10-Jul-21 21:27 35.879581 -112.686957 256 10480ft 173kts
10-Jul-21 21:28 35.867121 -112.744210 256 10486ft 173kts
10-Jul-21 21:29 35.854551 -112.801964 256 10412ft 176kts
10-Jul-21 21:30 35.841817 -112.859921 256 10424ft 176kts
10-Jul-21 21:31 35.826532 -112.917327 248 10447ft 177kts
10-Jul-21 21:32 35.806629 -112.973904 248 10445ft 180kts
10-Jul-21 21:33 35.787953 -113.031365 251 10450ft 181kts
10-Jul-21 21:34 35.770667 -113.089827 251 10411ft 181kts
10-Jul-21 21:35 35.753141 -113.148592 251 10269ft 188kts
10-Jul-21 21:36 35.735970 -113.209038 251 10279ft 190kts
10-Jul-21 21:37 35.718080 -113.270418 251 10210ft 192kts
10-Jul-21 21:38 35.699802 -113.331897 253 10200ft 188kts
10-Jul-21 21:39 35.679646 -113.391582 247 10189ft 192kts
10-Jul-21 21:40 35.658393 -113.451320 251 10248ft 189kts
10-Jul-21 21:41 35.636785 -113.511460 246 10244ft 188kts
10-Jul-21 21:42 35.614914 -113.571004 235 10196ft 191kts
10-Jul-21 21:43 35.572397 -113.609740 215 10211ft 190kts
10-Jul-21 21:44 35.528775 -113.646994 215 10197ft 193kts
10-Jul-21 21:45 35.485745 -113.685672 220 10186ft 192kts
10-Jul-21 21:46 35.445884 -113.728823 221 10202ft 190kts
10-Jul-21 21:47 35.406075 -113.772106 221 10188ft 191kts
10-Jul-21 21:48 35.366292 -113.815227 222 10208ft 191kts
10-Jul-21 21:49 35.321879 -113.851118 208 10192ft 191kts
10-Jul-21 21:50 35.275703 -113.882716 208 10320ft 184kts
10-Jul-21 21:51 35.234147 -113.910732 208 10857ft 172kts
10-Jul-21 21:52 35.189648 -113.940645 208 10823ft 184kts
10-Jul-21 21:53 35.144298 -113.971179 208 10793ft 188kts
10-Jul-21 21:54 35.097906 -114.002367 208 10786ft 189kts
10-Jul-21 21:55 35.051814 -114.033396 208 10759ft 189kts
10-Jul-21 21:56 35.005576 -114.064585 208 10704ft 190kts
10-Jul-21 21:57 34.959135 -114.095638 208 10673ft 191kts
10-Jul-21 21:58 34.912330 -114.126672 208 10654ft 191kts
10-Jul-21 21:59 34.866675 -114.160334 216 10149ft 196kts
10-Jul-21 22:00 34.831664 -114.210659 236 9137ft 198kts
10-Jul-21 22:01 34.785726 -114.247587 206 8094ft 198kts
10-Jul-21 22:02 34.769231 -114.258173 210 7607ft 194kts
10-Jul-21 22:03 34.769231 -114.258173 210 7607ft 194kts
10-Jul-21 22:04 34.769231 -114.258173 210 7607ft 194kts
10-Jul-21 22:05 34.769231 -114.258173 210 7607ft 194kts
10-Jul-21 22:06 34.749048 -114.271561 205 6801ft 192kts
10-Jul-21 22:07 34.703175 -114.296185 199 4099ft 158kts
10-Jul-21 22:08 34.669485 -114.312693 200 3025ft 118kts
10-Jul-21 22:09 34.640280 -114.326317 197 2627ft 115kts
10-Jul-21 22:10 34.609545 -114.339265 187 2194ft 118kts
10-Jul-21 22:11 34.580481 -114.351471 216 2015ft 110kts
10-Jul-21 22:12 34.585083 -114.378202 342 1632ft 107kts
10-Jul-21 22:13 34.589505 -114.370457 160 960ft 88kts
10-Jul-21 22:14 34.574180 -114.361549 221 759ft 12kts
10-Jul-21 22:15 34.570223 -114.358873 190 753ft 8kts
10-Jul-21 22:16 34.569640 -114.360944 0 730ft 0kts

Navigation Log

Ident Type
Flight plan parsing failed, navigation log unavailable